sensor_id;sensor_type;location;lat;lon;timestamp;P1;durP1;ratioP1;P2;durP2;ratioP2
8887;SDS011;4480;52.370;9.748;2023-07-20T00:02:06;1.40;;;1.30;;
8887;SDS011;4480;52.370;9.748;2023-07-20T00:04:34;1.57;;;1.47;;
8887;SDS011;4480;52.370;9.748;2023-07-20T00:07:01;2.10;;;1.53;;
8887;SDS011;4480;52.370;9.748;2023-07-20T00:09:29;1.40;;;1.30;;
8887;SDS011;4480;52.370;9.748;2023-07-20T00:11:56;1.60;;;1.40;;
8887;SDS011;4480;52.370;9.748;2023-07-20T00:14:24;1.40;;;1.30;;
8887;SDS011;4480;52.370;9.748;2023-07-20T00:16:52;1.83;;;1.50;;
8887;SDS011;4480;52.370;9.748;2023-07-20T00:19:22;2.10;;;1.90;;
8887;SDS011;4480;52.370;9.748;2023-07-20T00:21:51;1.43;;;1.33;;
8887;SDS011;4480;52.370;9.748;2023-07-20T00:24:18;1.70;;;1.13;;
8887;SDS011;4480;52.370;9.748;2023-07-20T00:26:45;1.83;;;1.53;;
8887;SDS011;4480;52.370;9.748;2023-07-20T00:29:12;2.60;;;1.77;;
8887;SDS011;4480;52.370;9.748;2023-07-20T00:31:38;1.20;;;1.10;;
8887;SDS011;4480;52.370;9.748;2023-07-20T00:34:05;1.80;;;1.50;;
8887;SDS011;4480;52.370;9.748;2023-07-20T00:36:32;2.10;;;1.90;;
8887;SDS011;4480;52.370;9.748;2023-07-20T00:39:00;1.60;;;1.50;;
8887;SDS011;4480;52.370;9.748;2023-07-20T00:41:28;1.60;;;1.50;;
8887;SDS011;4480;52.370;9.748;2023-07-20T00:43:55;1.93;;;1.73;;
8887;SDS011;4480;52.370;9.748;2023-07-20T00:46:22;1.97;;;1.70;;
8887;SDS011;4480;52.370;9.748;2023-07-20T00:48:50;1.50;;;1.40;;
8887;SDS011;4480;52.370;9.748;2023-07-20T00:51:18;3.43;;;2.37;;
8887;SDS011;4480;52.370;9.748;2023-07-20T00:53:45;2.23;;;1.83;;
8887;SDS011;4480;52.370;9.748;2023-07-20T00:56:14;1.97;;;1.57;;
8887;SDS011;4480;52.370;9.748;2023-07-20T00:58:41;1.60;;;1.50;;
8887;SDS011;4480;52.370;9.748;2023-07-20T01:01:09;2.80;;;2.00;;
8887;SDS011;4480;52.370;9.748;2023-07-20T01:03:36;2.63;;;1.50;;
8887;SDS011;4480;52.370;9.748;2023-07-20T01:06:05;1.77;;;1.40;;
8887;SDS011;4480;52.370;9.748;2023-07-20T01:08:43;1.70;;;1.60;;
8887;SDS011;4480;52.370;9.748;2023-07-20T01:11:20;1.80;;;1.70;;
8887;SDS011;4480;52.370;9.748;2023-07-20T01:13:51;2.07;;;1.57;;
8887;SDS011;4480;52.370;9.748;2023-07-20T01:16:17;2.00;;;1.80;;
8887;SDS011;4480;52.370;9.748;2023-07-20T01:18:44;3.50;;;1.90;;
8887;SDS011;4480;52.370;9.748;2023-07-20T01:21:12;2.00;;;1.80;;
8887;SDS011;4480;52.370;9.748;2023-07-20T01:23:50;1.70;;;1.60;;
8887;SDS011;4480;52.370;9.748;2023-07-20T01:26:48;3.33;;;2.90;;
8887;SDS011;4480;52.370;9.748;2023-07-20T01:29:35;2.97;;;2.67;;
8887;SDS011;4480;52.370;9.748;2023-07-20T01:32:19;4.00;;;3.40;;
8887;SDS011;4480;52.370;9.748;2023-07-20T01:34:49;6.20;;;3.60;;
8887;SDS011;4480;52.370;9.748;2023-07-20T01:37:20;3.83;;;3.23;;
8887;SDS011;4480;52.370;9.748;2023-07-20T01:39:50;7.53;;;3.10;;
8887;SDS011;4480;52.370;9.748;2023-07-20T01:42:20;2.67;;;2.13;;
8887;SDS011;4480;52.370;9.748;2023-07-20T01:44:47;4.13;;;2.30;;
8887;SDS011;4480;52.370;9.748;2023-07-20T01:47:16;2.33;;;2.00;;
8887;SDS011;4480;52.370;9.748;2023-07-20T01:49:44;3.17;;;2.40;;
8887;SDS011;4480;52.370;9.748;2023-07-20T01:52:11;3.80;;;2.33;;
8887;SDS011;4480;52.370;9.748;2023-07-20T01:54:38;3.53;;;2.47;;
8887;SDS011;4480;52.370;9.748;2023-07-20T01:57:05;3.53;;;1.97;;
8887;SDS011;4480;52.370;9.748;2023-07-20T01:59:31;4.47;;;1.80;;
8887;SDS011;4480;52.370;9.748;2023-07-20T02:01:58;2.27;;;2.07;;
8887;SDS011;4480;52.370;9.748;2023-07-20T02:04:25;2.20;;;1.90;;
8887;SDS011;4480;52.370;9.748;2023-07-20T02:06:53;7.27;;;2.03;;
8887;SDS011;4480;52.370;9.748;2023-07-20T02:09:20;2.23;;;1.97;;
8887;SDS011;4480;52.370;9.748;2023-07-20T02:11:46;1.90;;;1.80;;
8887;SDS011;4480;52.370;9.748;2023-07-20T02:14:13;5.97;;;1.77;;
8887;SDS011;4480;52.370;9.748;2023-07-20T02:16:40;1.80;;;1.57;;
8887;SDS011;4480;52.370;9.748;2023-07-20T02:19:07;1.80;;;1.70;;
8887;SDS011;4480;52.370;9.748;2023-07-20T02:21:33;1.73;;;1.40;;
8887;SDS011;4480;52.370;9.748;2023-07-20T02:24:02;1.67;;;1.57;;
8887;SDS011;4480;52.370;9.748;2023-07-20T02:26:29;1.93;;;1.77;;
8887;SDS011;4480;52.370;9.748;2023-07-20T02:28:55;3.20;;;1.90;;
8887;SDS011;4480;52.370;9.748;2023-07-20T02:31:22;1.47;;;1.30;;
8887;SDS011;4480;52.370;9.748;2023-07-20T02:33:49;2.90;;;1.73;;
8887;SDS011;4480;52.370;9.748;2023-07-20T02:36:16;2.00;;;1.43;;
8887;SDS011;4480;52.370;9.748;2023-07-20T02:38:42;1.50;;;1.40;;
8887;SDS011;4480;52.370;9.748;2023-07-20T02:41:11;4.63;;;1.90;;
8887;SDS011;4480;52.370;9.748;2023-07-20T02:43:38;1.60;;;1.50;;
8887;SDS011;4480;52.370;9.748;2023-07-20T02:46:04;8.07;;;1.53;;
8887;SDS011;4480;52.370;9.748;2023-07-20T02:48:31;1.70;;;1.60;;
8887;SDS011;4480;52.370;9.748;2023-07-20T02:50:58;1.47;;;1.37;;
8887;SDS011;4480;52.370;9.748;2023-07-20T02:53:25;2.00;;;1.40;;
8887;SDS011;4480;52.370;9.748;2023-07-20T02:55:51;1.40;;;1.30;;
8887;SDS011;4480;52.370;9.748;2023-07-20T02:58:20;3.90;;;1.67;;
8887;SDS011;4480;52.370;9.748;2023-07-20T03:00:46;1.90;;;1.40;;
8887;SDS011;4480;52.370;9.748;2023-07-20T03:03:13;1.80;;;1.60;;
8887;SDS011;4480;52.370;9.748;2023-07-20T03:05:40;1.30;;;1.20;;
8887;SDS011;4480;52.370;9.748;2023-07-20T03:08:07;1.70;;;1.27;;
8887;SDS011;4480;52.370;9.748;2023-07-20T03:10:38;2.33;;;1.67;;
8887;SDS011;4480;52.370;9.748;2023-07-20T03:13:05;1.60;;;1.50;;
8887;SDS011;4480;52.370;9.748;2023-07-20T03:15:33;2.30;;;1.60;;
8887;SDS011;4480;52.370;9.748;2023-07-20T03:18:00;1.30;;;1.20;;
8887;SDS011;4480;52.370;9.748;2023-07-20T03:20:28;3.10;;;1.60;;
8887;SDS011;4480;52.370;9.748;2023-07-20T03:22:55;2.20;;;1.57;;
8887;SDS011;4480;52.370;9.748;2023-07-20T03:25:21;1.90;;;1.43;;
8887;SDS011;4480;52.370;9.748;2023-07-20T03:27:48;1.30;;;1.20;;
8887;SDS011;4480;52.370;9.748;2023-07-20T03:30:15;2.10;;;1.53;;
8887;SDS011;4480;52.370;9.748;2023-07-20T03:32:43;3.03;;;1.57;;
8887;SDS011;4480;52.370;9.748;2023-07-20T03:35:10;1.93;;;1.50;;
8887;SDS011;4480;52.370;9.748;2023-07-20T03:37:37;2.43;;;1.60;;
8887;SDS011;4480;52.370;9.748;2023-07-20T03:40:05;1.60;;;1.50;;
8887;SDS011;4480;52.370;9.748;2023-07-20T03:42:32;2.07;;;1.50;;
8887;SDS011;4480;52.370;9.748;2023-07-20T03:44:59;3.33;;;1.57;;
8887;SDS011;4480;52.370;9.748;2023-07-20T03:47:26;1.33;;;1.23;;
8887;SDS011;4480;52.370;9.748;2023-07-20T03:49:54;1.53;;;1.43;;
8887;SDS011;4480;52.370;9.748;2023-07-20T03:52:21;1.20;;;1.10;;
8887;SDS011;4480;52.370;9.748;2023-07-20T03:54:48;1.73;;;1.20;;
8887;SDS011;4480;52.370;9.748;2023-07-20T03:57:16;3.73;;;1.40;;
8887;SDS011;4480;52.370;9.748;2023-07-20T03:59:44;1.50;;;1.40;;
8887;SDS011;4480;52.370;9.748;2023-07-20T04:02:12;1.53;;;1.33;;
8887;SDS011;4480;52.370;9.748;2023-07-20T04:04:38;2.73;;;1.57;;
8887;SDS011;4480;52.370;9.748;2023-07-20T04:07:07;2.13;;;1.57;;
8887;SDS011;4480;52.370;9.748;2023-07-20T04:11:57;1.63;;;1.53;;
8887;SDS011;4480;52.370;9.748;2023-07-20T04:14:23;2.17;;;1.80;;
8887;SDS011;4480;52.370;9.748;2023-07-20T04:16:50;2.03;;;1.73;;
8887;SDS011;4480;52.370;9.748;2023-07-20T04:19:17;1.70;;;1.60;;
8887;SDS011;4480;52.370;9.748;2023-07-20T04:21:44;2.10;;;1.77;;
8887;SDS011;4480;52.370;9.748;2023-07-20T04:24:11;3.83;;;2.20;;
8887;SDS011;4480;52.370;9.748;2023-07-20T04:26:37;3.03;;;2.30;;
8887;SDS011;4480;52.370;9.748;2023-07-20T04:29:05;5.30;;;2.53;;
8887;SDS011;4480;52.370;9.748;2023-07-20T04:31:32;2.57;;;2.23;;
8887;SDS011;4480;52.370;9.748;2023-07-20T04:33:59;2.80;;;2.10;;
8887;SDS011;4480;52.370;9.748;2023-07-20T04:36:26;2.50;;;1.93;;
8887;SDS011;4480;52.370;9.748;2023-07-20T04:38:53;5.73;;;2.30;;
8887;SDS011;4480;52.370;9.748;2023-07-20T04:41:19;3.00;;;2.40;;
8887;SDS011;4480;52.370;9.748;2023-07-20T04:43:46;2.50;;;2.07;;
8887;SDS011;4480;52.370;9.748;2023-07-20T04:46:15;2.93;;;2.63;;
8887;SDS011;4480;52.370;9.748;2023-07-20T04:48:42;2.43;;;2.23;;
8887;SDS011;4480;52.370;9.748;2023-07-20T04:51:09;2.70;;;1.70;;
8887;SDS011;4480;52.370;9.748;2023-07-20T04:53:36;7.33;;;2.87;;
8887;SDS011;4480;52.370;9.748;2023-07-20T04:56:03;2.40;;;2.20;;
8887;SDS011;4480;52.370;9.748;2023-07-20T04:58:30;3.00;;;2.43;;
8887;SDS011;4480;52.370;9.748;2023-07-20T05:00:57;3.80;;;2.63;;
8887;SDS011;4480;52.370;9.748;2023-07-20T05:03:25;4.70;;;3.10;;
8887;SDS011;4480;52.370;9.748;2023-07-20T05:05:53;4.23;;;2.70;;
8887;SDS011;4480;52.370;9.748;2023-07-20T05:08:20;4.07;;;3.67;;
8887;SDS011;4480;52.370;9.748;2023-07-20T05:10:48;3.93;;;3.57;;
8887;SDS011;4480;52.370;9.748;2023-07-20T05:13:15;4.73;;;3.87;;
8887;SDS011;4480;52.370;9.748;2023-07-20T05:15:42;5.60;;;4.87;;
8887;SDS011;4480;52.370;9.748;2023-07-20T05:18:09;5.30;;;4.73;;
8887;SDS011;4480;52.370;9.748;2023-07-20T05:20:37;5.30;;;4.80;;
8887;SDS011;4480;52.370;9.748;2023-07-20T05:23:04;4.97;;;4.57;;
8887;SDS011;4480;52.370;9.748;2023-07-20T05:25:30;5.60;;;4.40;;
8887;SDS011;4480;52.370;9.748;2023-07-20T05:27:57;5.50;;;4.97;;
8887;SDS011;4480;52.370;9.748;2023-07-20T05:30:24;4.90;;;3.67;;
8887;SDS011;4480;52.370;9.748;2023-07-20T05:32:51;3.93;;;3.53;;
8887;SDS011;4480;52.370;9.748;2023-07-20T05:35:19;6.23;;;3.67;;
8887;SDS011;4480;52.370;9.748;2023-07-20T05:37:48;4.57;;;4.17;;
8887;SDS011;4480;52.370;9.748;2023-07-20T05:40:15;7.17;;;3.30;;
8887;SDS011;4480;52.370;9.748;2023-07-20T05:42:44;3.60;;;3.30;;
8887;SDS011;4480;52.370;9.748;2023-07-20T05:45:11;4.33;;;3.93;;
8887;SDS011;4480;52.370;9.748;2023-07-20T05:47:38;3.80;;;3.50;;
8887;SDS011;4480;52.370;9.748;2023-07-20T05:50:05;4.30;;;3.90;;
8887;SDS011;4480;52.370;9.748;2023-07-20T05:52:32;4.77;;;4.27;;
8887;SDS011;4480;52.370;9.748;2023-07-20T05:55:01;4.70;;;4.30;;
8887;SDS011;4480;52.370;9.748;2023-07-20T05:57:28;4.47;;;4.07;;
8887;SDS011;4480;52.370;9.748;2023-07-20T05:59:55;4.47;;;4.17;;
8887;SDS011;4480;52.370;9.748;2023-07-20T06:02:22;4.50;;;3.83;;
8887;SDS011;4480;52.370;9.748;2023-07-20T06:04:48;4.90;;;4.00;;
8887;SDS011;4480;52.370;9.748;2023-07-20T06:07:15;4.63;;;4.23;;
8887;SDS011;4480;52.370;9.748;2023-07-20T06:09:42;3.33;;;3.13;;
8887;SDS011;4480;52.370;9.748;2023-07-20T06:12:10;4.23;;;3.83;;
8887;SDS011;4480;52.370;9.748;2023-07-20T06:14:37;5.10;;;3.77;;
8887;SDS011;4480;52.370;9.748;2023-07-20T06:17:04;4.27;;;3.87;;
8887;SDS011;4480;52.370;9.748;2023-07-20T06:19:31;5.17;;;3.90;;
8887;SDS011;4480;52.370;9.748;2023-07-20T06:21:58;4.13;;;3.77;;
8887;SDS011;4480;52.370;9.748;2023-07-20T06:24:25;4.13;;;3.00;;
8887;SDS011;4480;52.370;9.748;2023-07-20T06:26:52;3.50;;;3.20;;
8887;SDS011;4480;52.370;9.748;2023-07-20T06:29:20;3.97;;;3.20;;
8887;SDS011;4480;52.370;9.748;2023-07-20T06:31:47;3.20;;;2.90;;
8887;SDS011;4480;52.370;9.748;2023-07-20T06:34:14;9.20;;;2.70;;
8887;SDS011;4480;52.370;9.748;2023-07-20T06:36:40;3.40;;;3.10;;
8887;SDS011;4480;52.370;9.748;2023-07-20T06:39:07;3.80;;;3.37;;
8887;SDS011;4480;52.370;9.748;2023-07-20T06:41:34;3.67;;;3.37;;
8887;SDS011;4480;52.370;9.748;2023-07-20T06:44:01;3.17;;;2.97;;
8887;SDS011;4480;52.370;9.748;2023-07-20T06:46:29;3.50;;;3.20;;
8887;SDS011;4480;52.370;9.748;2023-07-20T06:48:56;4.20;;;3.80;;
8887;SDS011;4480;52.370;9.748;2023-07-20T06:51:23;6.67;;;4.30;;
8887;SDS011;4480;52.370;9.748;2023-07-20T06:53:49;3.93;;;3.63;;
8887;SDS011;4480;52.370;9.748;2023-07-20T06:56:16;4.27;;;3.83;;
8887;SDS011;4480;52.370;9.748;2023-07-20T06:58:43;4.07;;;3.77;;
8887;SDS011;4480;52.370;9.748;2023-07-20T07:01:10;3.90;;;3.60;;
8887;SDS011;4480;52.370;9.748;2023-07-20T07:03:38;4.00;;;3.70;;
8887;SDS011;4480;52.370;9.748;2023-07-20T07:06:04;3.33;;;3.03;;
8887;SDS011;4480;52.370;9.748;2023-07-20T07:08:31;3.57;;;3.27;;
8887;SDS011;4480;52.370;9.748;2023-07-20T07:10:58;3.00;;;2.80;;
8887;SDS011;4480;52.370;9.748;2023-07-20T07:13:25;3.23;;;2.87;;
8887;SDS011;4480;52.370;9.748;2023-07-20T07:15:52;3.27;;;2.97;;
8887;SDS011;4480;52.370;9.748;2023-07-20T07:18:18;3.23;;;2.93;;
8887;SDS011;4480;52.370;9.748;2023-07-20T07:20:53;4.00;;;3.10;;
8887;SDS011;4480;52.370;9.748;2023-07-20T07:23:20;3.77;;;3.20;;
8887;SDS011;4480;52.370;9.748;2023-07-20T07:25:47;2.60;;;2.40;;
8887;SDS011;4480;52.370;9.748;2023-07-20T07:28:14;2.60;;;2.40;;
8887;SDS011;4480;52.370;9.748;2023-07-20T07:30:41;2.30;;;2.10;;
8887;SDS011;4480;52.370;9.748;2023-07-20T07:33:08;2.40;;;2.20;;
8887;SDS011;4480;52.370;9.748;2023-07-20T07:35:35;2.47;;;2.00;;
8887;SDS011;4480;52.370;9.748;2023-07-20T07:38:03;3.63;;;2.07;;
8887;SDS011;4480;52.370;9.748;2023-07-20T07:40:30;3.13;;;2.27;;
8887;SDS011;4480;52.370;9.748;2023-07-20T07:42:57;3.47;;;3.17;;
8887;SDS011;4480;52.370;9.748;2023-07-20T07:45:24;2.97;;;2.77;;
8887;SDS011;4480;52.370;9.748;2023-07-20T07:47:50;4.90;;;3.53;;
8887;SDS011;4480;52.370;9.748;2023-07-20T07:50:17;3.00;;;2.80;;
8887;SDS011;4480;52.370;9.748;2023-07-20T07:52:44;3.73;;;2.90;;
8887;SDS011;4480;52.370;9.748;2023-07-20T07:55:13;3.50;;;3.20;;
8887;SDS011;4480;52.370;9.748;2023-07-20T07:57:41;2.90;;;2.70;;
8887;SDS011;4480;52.370;9.748;2023-07-20T08:00:09;3.87;;;3.03;;
8887;SDS011;4480;52.370;9.748;2023-07-20T08:02:39;5.20;;;2.93;;
8887;SDS011;4480;52.370;9.748;2023-07-20T08:05:06;5.50;;;2.80;;
8887;SDS011;4480;52.370;9.748;2023-07-20T08:07:33;2.20;;;2.07;;
8887;SDS011;4480;52.370;9.748;2023-07-20T08:10:00;2.03;;;1.73;;
8887;SDS011;4480;52.370;9.748;2023-07-20T08:12:28;2.80;;;1.63;;
8887;SDS011;4480;52.370;9.748;2023-07-20T08:14:55;2.37;;;1.83;;
8887;SDS011;4480;52.370;9.748;2023-07-20T08:17:22;2.10;;;1.80;;
8887;SDS011;4480;52.370;9.748;2023-07-20T08:19:49;2.20;;;1.67;;
8887;SDS011;4480;52.370;9.748;2023-07-20T08:22:16;1.47;;;1.37;;
8887;SDS011;4480;52.370;9.748;2023-07-20T08:24:43;1.40;;;1.30;;
8887;SDS011;4480;52.370;9.748;2023-07-20T08:27:10;2.30;;;1.50;;
8887;SDS011;4480;52.370;9.748;2023-07-20T08:29:38;1.90;;;1.27;;
8887;SDS011;4480;52.370;9.748;2023-07-20T08:32:05;1.40;;;1.30;;
8887;SDS011;4480;52.370;9.748;2023-07-20T08:34:33;2.03;;;1.70;;
8887;SDS011;4480;52.370;9.748;2023-07-20T08:37:00;1.80;;;1.60;;
8887;SDS011;4480;52.370;9.748;2023-07-20T08:39:27;2.10;;;1.90;;
8887;SDS011;4480;52.370;9.748;2023-07-20T08:41:54;2.20;;;2.00;;
8887;SDS011;4480;52.370;9.748;2023-07-20T08:44:22;2.30;;;1.63;;
8887;SDS011;4480;52.370;9.748;2023-07-20T08:46:50;1.67;;;1.57;;
8887;SDS011;4480;52.370;9.748;2023-07-20T08:49:18;3.77;;;1.67;;
8887;SDS011;4480;52.370;9.748;2023-07-20T08:51:45;1.73;;;1.63;;
8887;SDS011;4480;52.370;9.748;2023-07-20T08:54:13;1.80;;;1.70;;
8887;SDS011;4480;52.370;9.748;2023-07-20T08:56:42;2.40;;;1.67;;
8887;SDS011;4480;52.370;9.748;2023-07-20T08:59:11;2.23;;;1.70;;
8887;SDS011;4480;52.370;9.748;2023-07-20T09:01:39;1.80;;;1.20;;
8887;SDS011;4480;52.370;9.748;2023-07-20T09:04:07;1.87;;;1.67;;
8887;SDS011;4480;52.370;9.748;2023-07-20T09:06:34;1.97;;;1.60;;
8887;SDS011;4480;52.370;9.748;2023-07-20T09:09:01;2.13;;;1.30;;
8887;SDS011;4480;52.370;9.748;2023-07-20T09:11:28;1.30;;;1.20;;
8887;SDS011;4480;52.370;9.748;2023-07-20T09:14:05;2.03;;;1.40;;
8887;SDS011;4480;52.370;9.748;2023-07-20T09:16:37;1.37;;;1.27;;
8887;SDS011;4480;52.370;9.748;2023-07-20T09:19:15;2.50;;;1.60;;
8887;SDS011;4480;52.370;9.748;2023-07-20T09:21:46;1.70;;;1.60;;
8887;SDS011;4480;52.370;9.748;2023-07-20T09:24:14;1.70;;;1.10;;
8887;SDS011;4480;52.370;9.748;2023-07-20T09:26:42;1.43;;;1.23;;
8887;SDS011;4480;52.370;9.748;2023-07-20T09:29:09;1.60;;;1.20;;
8887;SDS011;4480;52.370;9.748;2023-07-20T09:31:36;1.50;;;1.30;;
8887;SDS011;4480;52.370;9.748;2023-07-20T09:34:04;2.17;;;1.33;;
8887;SDS011;4480;52.370;9.748;2023-07-20T09:36:34;3.57;;;0.90;;
8887;SDS011;4480;52.370;9.748;2023-07-20T09:39:02;3.90;;;0.83;;
8887;SDS011;4480;52.370;9.748;2023-07-20T09:41:30;1.10;;;0.60;;
8887;SDS011;4480;52.370;9.748;2023-07-20T09:44:06;1.43;;;1.17;;
8887;SDS011;4480;52.370;9.748;2023-07-20T09:46:41;4.40;;;1.07;;
8887;SDS011;4480;52.370;9.748;2023-07-20T09:49:08;1.43;;;1.00;;
8887;SDS011;4480;52.370;9.748;2023-07-20T09:51:37;2.30;;;1.40;;
8887;SDS011;4480;52.370;9.748;2023-07-20T09:54:04;1.03;;;0.93;;
8887;SDS011;4480;52.370;9.748;2023-07-20T09:56:32;1.53;;;0.77;;
8887;SDS011;4480;52.370;9.748;2023-07-20T09:58:59;1.87;;;0.83;;
8887;SDS011;4480;52.370;9.748;2023-07-20T10:01:26;2.60;;;1.00;;
8887;SDS011;4480;52.370;9.748;2023-07-20T10:03:56;1.77;;;1.10;;
8887;SDS011;4480;52.370;9.748;2023-07-20T10:06:26;0.80;;;0.80;;
8887;SDS011;4480;52.370;9.748;2023-07-20T10:08:59;0.80;;;0.80;;
8887;SDS011;4480;52.370;9.748;2023-07-20T10:11:29;4.00;;;1.03;;
8887;SDS011;4480;52.370;9.748;2023-07-20T10:13:58;1.53;;;0.70;;
8887;SDS011;4480;52.370;9.748;2023-07-20T10:16:28;0.83;;;0.70;;
8887;SDS011;4480;52.370;9.748;2023-07-20T10:19:00;1.20;;;0.90;;
8887;SDS011;4480;52.370;9.748;2023-07-20T10:21:31;1.90;;;1.10;;
8887;SDS011;4480;52.370;9.748;2023-07-20T10:24:03;2.10;;;1.10;;
8887;SDS011;4480;52.370;9.748;2023-07-20T10:26:31;2.03;;;1.20;;
8887;SDS011;4480;52.370;9.748;2023-07-20T10:28:58;2.20;;;1.13;;
8887;SDS011;4480;52.370;9.748;2023-07-20T10:31:25;1.80;;;0.70;;
8887;SDS011;4480;52.370;9.748;2023-07-20T10:33:54;1.20;;;0.83;;
8887;SDS011;4480;52.370;9.748;2023-07-20T10:36:24;1.37;;;1.00;;
8887;SDS011;4480;52.370;9.748;2023-07-20T10:38:52;4.43;;;1.33;;
8887;SDS011;4480;52.370;9.748;2023-07-20T10:41:22;1.00;;;0.80;;
8887;SDS011;4480;52.370;9.748;2023-07-20T10:43:57;2.40;;;1.10;;
8887;SDS011;4480;52.370;9.748;2023-07-20T10:46:35;1.87;;;1.10;;
8887;SDS011;4480;52.370;9.748;2023-07-20T10:49:09;2.50;;;1.00;;
8887;SDS011;4480;52.370;9.748;2023-07-20T10:51:40;0.97;;;0.83;;
8887;SDS011;4480;52.370;9.748;2023-07-20T10:54:09;3.50;;;1.03;;
8887;SDS011;4480;52.370;9.748;2023-07-20T10:57:21;2.13;;;1.10;;
8887;SDS011;4480;52.370;9.748;2023-07-20T10:59:48;1.00;;;0.80;;
8887;SDS011;4480;52.370;9.748;2023-07-20T11:02:17;1.27;;;1.00;;
8887;SDS011;4480;52.370;9.748;2023-07-20T11:04:45;1.40;;;0.93;;
8887;SDS011;4480;52.370;9.748;2023-07-20T11:07:15;1.23;;;0.80;;
8887;SDS011;4480;52.370;9.748;2023-07-20T11:09:42;1.47;;;0.80;;
8887;SDS011;4480;52.370;9.748;2023-07-20T11:12:11;1.67;;;0.90;;
8887;SDS011;4480;52.370;9.748;2023-07-20T11:14:42;1.97;;;1.03;;
8887;SDS011;4480;52.370;9.748;2023-07-20T11:17:19;2.53;;;1.00;;
8887;SDS011;4480;52.370;9.748;2023-07-20T11:19:47;1.50;;;0.80;;
8887;SDS011;4480;52.370;9.748;2023-07-20T11:22:16;1.47;;;0.70;;
8887;SDS011;4480;52.370;9.748;2023-07-20T11:24:43;1.33;;;0.83;;
8887;SDS011;4480;52.370;9.748;2023-07-20T11:27:11;1.60;;;1.03;;
8887;SDS011;4480;52.370;9.748;2023-07-20T11:29:38;1.00;;;0.90;;
8887;SDS011;4480;52.370;9.748;2023-07-20T11:32:05;1.30;;;1.10;;
8887;SDS011;4480;52.370;9.748;2023-07-20T11:34:32;2.27;;;1.10;;
8887;SDS011;4480;52.370;9.748;2023-07-20T11:37:00;1.07;;;0.90;;
8887;SDS011;4480;52.370;9.748;2023-07-20T11:39:28;1.87;;;1.20;;
8887;SDS011;4480;52.370;9.748;2023-07-20T11:41:56;1.07;;;0.80;;
8887;SDS011;4480;52.370;9.748;2023-07-20T11:44:25;1.10;;;0.90;;
8887;SDS011;4480;52.370;9.748;2023-07-20T11:46:59;1.50;;;1.20;;
8887;SDS011;4480;52.370;9.748;2023-07-20T11:49:28;3.10;;;1.17;;
8887;SDS011;4480;52.370;9.748;2023-07-20T11:51:56;1.27;;;0.77;;
8887;SDS011;4480;52.370;9.748;2023-07-20T11:54:23;1.67;;;0.90;;
8887;SDS011;4480;52.370;9.748;2023-07-20T11:56:53;1.27;;;0.93;;
8887;SDS011;4480;52.370;9.748;2023-07-20T11:59:20;1.20;;;0.80;;
8887;SDS011;4480;52.370;9.748;2023-07-20T12:01:48;2.27;;;1.10;;
8887;SDS011;4480;52.370;9.748;2023-07-20T12:04:15;3.77;;;1.20;;
8887;SDS011;4480;52.370;9.748;2023-07-20T12:06:42;0.90;;;0.80;;
8887;SDS011;4480;52.370;9.748;2023-07-20T12:09:12;1.53;;;0.80;;
8887;SDS011;4480;52.370;9.748;2023-07-20T12:11:42;1.47;;;0.80;;
8887;SDS011;4480;52.370;9.748;2023-07-20T12:14:09;1.60;;;0.90;;
8887;SDS011;4480;52.370;9.748;2023-07-20T12:16:36;1.27;;;0.80;;
8887;SDS011;4480;52.370;9.748;2023-07-20T12:19:05;1.10;;;0.83;;
8887;SDS011;4480;52.370;9.748;2023-07-20T12:21:33;1.80;;;0.80;;
8887;SDS011;4480;52.370;9.748;2023-07-20T12:24:02;3.87;;;1.13;;
8887;SDS011;4480;52.370;9.748;2023-07-20T12:26:29;2.17;;;1.10;;
8887;SDS011;4480;52.370;9.748;2023-07-20T12:28:57;2.13;;;0.93;;
8887;SDS011;4480;52.370;9.748;2023-07-20T12:31:24;2.73;;;1.00;;
8887;SDS011;4480;52.370;9.748;2023-07-20T12:33:52;2.30;;;1.03;;
8887;SDS011;4480;52.370;9.748;2023-07-20T12:36:21;3.27;;;1.10;;
8887;SDS011;4480;52.370;9.748;2023-07-20T12:38:48;0.93;;;0.73;;
8887;SDS011;4480;52.370;9.748;2023-07-20T12:41:15;2.27;;;0.97;;
8887;SDS011;4480;52.370;9.748;2023-07-20T12:43:42;1.30;;;0.90;;
8887;SDS011;4480;52.370;9.748;2023-07-20T12:46:10;2.40;;;1.03;;
8887;SDS011;4480;52.370;9.748;2023-07-20T12:48:38;2.50;;;1.00;;
8887;SDS011;4480;52.370;9.748;2023-07-20T12:51:07;1.57;;;0.90;;
8887;SDS011;4480;52.370;9.748;2023-07-20T12:53:35;1.87;;;0.90;;
8887;SDS011;4480;52.370;9.748;2023-07-20T12:56:02;2.93;;;0.97;;
8887;SDS011;4480;52.370;9.748;2023-07-20T12:58:29;3.53;;;1.00;;
8887;SDS011;4480;52.370;9.748;2023-07-20T13:00:56;1.20;;;0.90;;
8887;SDS011;4480;52.370;9.748;2023-07-20T13:03:23;1.20;;;0.90;;
8887;SDS011;4480;52.370;9.748;2023-07-20T13:05:50;1.30;;;1.00;;
8887;SDS011;4480;52.370;9.748;2023-07-20T13:08:17;2.13;;;1.10;;
8887;SDS011;4480;52.370;9.748;2023-07-20T13:10:46;0.87;;;0.80;;
8887;SDS011;4480;52.370;9.748;2023-07-20T13:13:13;1.57;;;1.00;;
8887;SDS011;4480;52.370;9.748;2023-07-20T13:15:43;2.53;;;0.90;;
8887;SDS011;4480;52.370;9.748;2023-07-20T13:18:11;1.87;;;0.80;;
8887;SDS011;4480;52.370;9.748;2023-07-20T13:20:38;0.93;;;0.70;;
8887;SDS011;4480;52.370;9.748;2023-07-20T13:23:05;1.83;;;1.30;;
8887;SDS011;4480;52.370;9.748;2023-07-20T13:25:32;3.20;;;1.30;;
8887;SDS011;4480;52.370;9.748;2023-07-20T13:28:00;2.13;;;1.10;;
8887;SDS011;4480;52.370;9.748;2023-07-20T13:30:27;1.47;;;1.10;;
8887;SDS011;4480;52.370;9.748;2023-07-20T13:32:54;1.03;;;0.90;;
8887;SDS011;4480;52.370;9.748;2023-07-20T13:35:21;1.13;;;0.80;;
8887;SDS011;4480;52.370;9.748;2023-07-20T13:37:48;1.40;;;1.00;;
8887;SDS011;4480;52.370;9.748;2023-07-20T13:40:15;2.60;;;1.13;;
8887;SDS011;4480;52.370;9.748;2023-07-20T13:42:43;1.67;;;0.93;;
8887;SDS011;4480;52.370;9.748;2023-07-20T13:45:11;1.10;;;1.00;;
8887;SDS011;4480;52.370;9.748;2023-07-20T13:47:38;4.93;;;1.77;;
8887;SDS011;4480;52.370;9.748;2023-07-20T13:50:05;1.80;;;1.10;;
8887;SDS011;4480;52.370;9.748;2023-07-20T13:52:33;1.67;;;1.23;;
8887;SDS011;4480;52.370;9.748;2023-07-20T13:55:00;2.80;;;1.53;;
8887;SDS011;4480;52.370;9.748;2023-07-20T13:57:27;2.80;;;1.43;;
8887;SDS011;4480;52.370;9.748;2023-07-20T13:59:54;2.17;;;1.67;;
8887;SDS011;4480;52.370;9.748;2023-07-20T14:02:22;4.20;;;1.43;;
8887;SDS011;4480;52.370;9.748;2023-07-20T14:04:48;1.73;;;1.33;;
8887;SDS011;4480;52.370;9.748;2023-07-20T14:07:15;1.67;;;1.57;;
8887;SDS011;4480;52.370;9.748;2023-07-20T14:09:42;2.13;;;1.00;;
8887;SDS011;4480;52.370;9.748;2023-07-20T14:12:09;3.00;;;1.20;;
8887;SDS011;4480;52.370;9.748;2023-07-20T14:14:39;2.70;;;1.30;;
8887;SDS011;4480;52.370;9.748;2023-07-20T14:17:05;1.77;;;1.40;;
8887;SDS011;4480;52.370;9.748;2023-07-20T14:19:34;1.00;;;0.90;;
8887;SDS011;4480;52.370;9.748;2023-07-20T14:22:02;3.33;;;1.30;;
8887;SDS011;4480;52.370;9.748;2023-07-20T14:24:29;1.60;;;1.10;;
8887;SDS011;4480;52.370;9.748;2023-07-20T14:26:56;1.87;;;0.93;;
8887;SDS011;4480;52.370;9.748;2023-07-20T14:29:25;2.23;;;1.13;;
8887;SDS011;4480;52.370;9.748;2023-07-20T14:31:52;2.40;;;1.20;;
8887;SDS011;4480;52.370;9.748;2023-07-20T14:34:19;1.80;;;1.10;;
8887;SDS011;4480;52.370;9.748;2023-07-20T14:36:47;1.57;;;1.43;;
8887;SDS011;4480;52.370;9.748;2023-07-20T14:39:14;1.60;;;1.27;;
8887;SDS011;4480;52.370;9.748;2023-07-20T14:41:41;2.33;;;1.30;;
8887;SDS011;4480;52.370;9.748;2023-07-20T14:44:08;2.03;;;1.47;;
8887;SDS011;4480;52.370;9.748;2023-07-20T14:46:35;2.23;;;1.00;;
8887;SDS011;4480;52.370;9.748;2023-07-20T14:49:02;2.87;;;1.30;;
8887;SDS011;4480;52.370;9.748;2023-07-20T14:51:28;2.20;;;1.20;;
8887;SDS011;4480;52.370;9.748;2023-07-20T14:53:59;1.30;;;1.20;;
8887;SDS011;4480;52.370;9.748;2023-07-20T14:56:26;2.00;;;1.07;;
8887;SDS011;4480;52.370;9.748;2023-07-20T14:58:53;2.70;;;1.27;;
8887;SDS011;4480;52.370;9.748;2023-07-20T15:01:20;2.10;;;1.00;;
8887;SDS011;4480;52.370;9.748;2023-07-20T15:03:48;1.20;;;1.10;;
8887;SDS011;4480;52.370;9.748;2023-07-20T15:06:17;1.60;;;1.30;;
8887;SDS011;4480;52.370;9.748;2023-07-20T15:08:44;3.63;;;1.20;;
8887;SDS011;4480;52.370;9.748;2023-07-20T15:11:12;1.70;;;1.30;;
8887;SDS011;4480;52.370;9.748;2023-07-20T15:13:39;3.30;;;1.53;;
8887;SDS011;4480;52.370;9.748;2023-07-20T15:16:07;7.77;;;2.00;;
8887;SDS011;4480;52.370;9.748;2023-07-20T15:18:35;2.20;;;1.43;;
8887;SDS011;4480;52.370;9.748;2023-07-20T15:21:11;2.20;;;1.20;;
8887;SDS011;4480;52.370;9.748;2023-07-20T15:23:55;1.67;;;1.17;;